Wind Star — C6CA9 — position and weather

sailwx.info

Track history (hours):
 
Tides and Currents Weather Stations Pressure Air Temp Water Temp Dewpoint Dewpoint Depression Visibility Wind Speed Wind Dir Waves Ship Positions

Wind Star

Operator: Holland America Line

Last reported at 2014-Oct-22 04:13 UTC. Time now 2014-Oct-22 08:06 UTC.
Position N 37°47' E 015°29'.

Length 135 m; draft 4.1 m.

Type: Ship. MMSI: 309163000.

Date/timePositionNaut miles runAvg speedWind from/ knotsBaromVisibWave heightAir tempDewpointWater temp
2014-Oct-22 04:13N 37°47' E 015°29'  
2014-Oct-18 23:28N 37°08' E 023°21'7 6.8
2014-Oct-18 22:30N 37°09' E 023°29'31 5.9
2014-Oct-18 17:15N 37°37' E 023°44'5 6.8
2014-Oct-18 16:33N 37°42' E 023°41'7 7.0
2014-Oct-18 15:33N 37°48' E 023°38'8 7.9
2014-Oct-18 14:33N 37°56' E 023°37'1 1.2
2014-Oct-18 13:33N 37°56' E 023°38'0 0.0
2014-Oct-18 12:33N 37°56' E 023°38'0 0.0
2014-Oct-18 11:33N 37°56' E 023°38'0 0.0
2014-Oct-18 10:33N 37°56' E 023°38'0 0.0
2014-Oct-18 09:33N 37°56' E 023°38'0 0.0
2014-Oct-18 08:33N 37°56' E 023°38'0 0.0
2014-Oct-18 07:33N 37°56' E 023°38'0 0.0
2014-Oct-18 06:33N 37°56' E 023°38'0 0.0
2014-Oct-18 05:33N 37°56' E 023°38'0 0.0
2014-Oct-18 04:33N 37°56' E 023°38'1 0.8
2014-Oct-18 03:34N 37°56' E 023°37'4 4.4
2014-Oct-18 02:34N 37°52' E 023°39'7 6.5
2014-Oct-18 01:33N 37°46' E 023°42'7 6.9
2014-Oct-18 00:33N 37°40' E 023°46'8 7.4
2014-Oct-17 23:25N 37°34' E 023°54'14 7.1
2014-Oct-17 21:26N 37°31' E 024°12'15 7.2
2014-Oct-17 19:21N 37°30' E 024°30'6 6.7
2014-Oct-17 18:29N 37°30' E 024°38'7 7.5
2014-Oct-17 17:34N 37°31' E 024°46'9 7.5
2014-Oct-17 16:20N 37°31' E 024°58'6 7.5
2014-Oct-17 15:33N 37°30' E 025°05'9 9.2
2014-Oct-17 14:33N 37°28' E 025°16'2 2.0
2014-Oct-17 13:22N 37°27' E 025°19'0 0.0
2014-Oct-17 12:19N 37°27' E 025°19'0 0.0
2014-Oct-17 11:31N 37°27' E 025°19'0 0.0
2014-Oct-17 10:28N 37°27' E 025°19'0 0.0
2014-Oct-17 09:28N 37°27' E 025°19'0 0.0
2014-Oct-17 08:31N 37°27' E 025°19'0 0.0
2014-Oct-17 07:04N 37°27' E 025°19'0 0.0
2014-Oct-17 06:22N 37°27' E 025°19'0 0.0
2014-Oct-17 05:25N 37°27' E 025°19'0 0.1
2014-Oct-17 04:31N 37°27' E 025°19'2 1.8
2014-Oct-17 03:33N 37°26' E 025°17'7 6.7
2014-Oct-17 02:33N 37°19' E 025°18'6 6.5
2014-Oct-17 01:33N 37°13' E 025°19'6 6.3
2014-Oct-17 00:33N 37°06' E 025°19'6 6.2
2014-Oct-16 23:33N 37°00' E 025°18'6 5.5
2014-Oct-16 22:33N 36°55' E 025°17'6 6.2
2014-Oct-16 21:33N 36°50' E 025°12'5 5.3
2014-Oct-16 20:33N 36°45' E 025°12'9 8.8
2014-Oct-16 19:33N 36°37' E 025°16'1010.1
2014-Oct-16 18:33N 36°28' E 025°22'4 3.7
2014-Oct-16 17:31N 36°25' E 025°25'0 0.0
2014-Oct-16 16:31N 36°25' E 025°25'0 0.0
2014-Oct-16 15:31N 36°25' E 025°25'0 0.0
2014-Oct-16 14:31N 36°25' E 025°25'0 0.0
2014-Oct-16 13:31N 36°25' E 025°25'0 0.0
2014-Oct-16 12:31N 36°25' E 025°25'0 0.0
2014-Oct-16 11:31N 36°25' E 025°25'0 0.0
2014-Oct-16 10:31N 36°25' E 025°25'0 0.0
2014-Oct-16 09:31N 36°25' E 025°25'0 0.0
2014-Oct-16 08:31N 36°25' E 025°25'0 0.0
2014-Oct-16 07:31N 36°25' E 025°25'0 0.0
2014-Oct-16 06:31N 36°25' E 025°25'0 0.0
2014-Oct-16 05:31N 36°25' E 025°25'0 0.0
2014-Oct-16 04:32N 36°25' E 025°25'5 4.7
2014-Oct-16 03:33N 36°28' E 025°21'8 7.9
2014-Oct-16 02:33N 36°33' E 025°29'9 9.0
2014-Oct-16 01:33N 36°34' E 025°40'9 9.2
2014-Oct-16 00:33N 36°37' E 025°51'10 9.6
2014-Oct-15 23:33N 36°40' E 026°03'1010.3
2014-Oct-15 22:33N 36°43' E 026°15'1110.9
2014-Oct-15 21:33N 36°46' E 026°28'9 8.6
2014-Oct-15 20:33N 36°48' E 026°38'9 9.0
2014-Oct-15 19:33N 36°50' E 026°49'10 9.9
2014-Oct-15 18:33N 36°53' E 027°01'1010.0
2014-Oct-15 17:31N 36°55' E 027°14'9 9.7
2014-Oct-15 16:33N 36°59' E 027°24'36 0.9
2014-Oct-13 22:32N 37°24' E 026°52'158 4.2
2014-Oct-12 09:04N 39°53' E 025°43'3 6.1
2014-Oct-12 08:34N 39°55' E 025°47'7 6.4
2014-Oct-12 07:24N 39°59' E 025°55'  
Track history (hours):
 
Tides and Currents Weather Stations Pressure Air Temp Water Temp Dewpoint Dewpoint Depression Visibility Wind Speed Wind Dir Waves Ship Positions

Wind Star

Operator: Holland America Line

Last reported at 2014-Oct-22 04:13 UTC. Time now 2014-Oct-22 08:06 UTC.
Position N 37°47' E 015°29'.

Length 135 m; draft 4.1 m.

Type: Ship. MMSI: 309163000.

Date/timePositionNaut miles runAvg speedWind from/ knotsBaromVisibWave heightAir tempDewpointWater temp
2014-Oct-22 04:13N 37°47' E 015°29'  
2014-Oct-18 23:28N 37°08' E 023°21'7 6.8
2014-Oct-18 22:30N 37°09' E 023°29'31 5.9
2014-Oct-18 17:15N 37°37' E 023°44'5 6.8
2014-Oct-18 16:33N 37°42' E 023°41'7 7.0
2014-Oct-18 15:33N 37°48' E 023°38'8 7.9
2014-Oct-18 14:33N 37°56' E 023°37'1 1.2
2014-Oct-18 13:33N 37°56' E 023°38'0 0.0
2014-Oct-18 12:33N 37°56' E 023°38'0 0.0
2014-Oct-18 11:33N 37°56' E 023°38'0 0.0
2014-Oct-18 10:33N 37°56' E 023°38'0 0.0
2014-Oct-18 09:33N 37°56' E 023°38'0 0.0
2014-Oct-18 08:33N 37°56' E 023°38'0 0.0
2014-Oct-18 07:33N 37°56' E 023°38'0 0.0
2014-Oct-18 06:33N 37°56' E 023°38'0 0.0
2014-Oct-18 05:33N 37°56' E 023°38'0 0.0
2014-Oct-18 04:33N 37°56' E 023°38'1 0.8
2014-Oct-18 03:34N 37°56' E 023°37'4 4.4
2014-Oct-18 02:34N 37°52' E 023°39'7 6.5
2014-Oct-18 01:33N 37°46' E 023°42'7 6.9
2014-Oct-18 00:33N 37°40' E 023°46'8 7.4
2014-Oct-17 23:25N 37°34' E 023°54'14 7.1
2014-Oct-17 21:26N 37°31' E 024°12'15 7.2
2014-Oct-17 19:21N 37°30' E 024°30'6 6.7
2014-Oct-17 18:29N 37°30' E 024°38'7 7.5
2014-Oct-17 17:34N 37°31' E 024°46'9 7.5
2014-Oct-17 16:20N 37°31' E 024°58'6 7.5
2014-Oct-17 15:33N 37°30' E 025°05'9 9.2
2014-Oct-17 14:33N 37°28' E 025°16'2 2.0
2014-Oct-17 13:22N 37°27' E 025°19'0 0.0
2014-Oct-17 12:19N 37°27' E 025°19'0 0.0
2014-Oct-17 11:31N 37°27' E 025°19'0 0.0
2014-Oct-17 10:28N 37°27' E 025°19'0 0.0
2014-Oct-17 09:28N 37°27' E 025°19'0 0.0
2014-Oct-17 08:31N 37°27' E 025°19'0 0.0
2014-Oct-17 07:04N 37°27' E 025°19'0 0.0
2014-Oct-17 06:22N 37°27' E 025°19'0 0.0
2014-Oct-17 05:25N 37°27' E 025°19'0 0.1
2014-Oct-17 04:31N 37°27' E 025°19'2 1.8
2014-Oct-17 03:33N 37°26' E 025°17'7 6.7
2014-Oct-17 02:33N 37°19' E 025°18'6 6.5
2014-Oct-17 01:33N 37°13' E 025°19'6 6.3
2014-Oct-17 00:33N 37°06' E 025°19'6 6.2
2014-Oct-16 23:33N 37°00' E 025°18'6 5.5
2014-Oct-16 22:33N 36°55' E 025°17'6 6.2
2014-Oct-16 21:33N 36°50' E 025°12'5 5.3
2014-Oct-16 20:33N 36°45' E 025°12'9 8.8
2014-Oct-16 19:33N 36°37' E 025°16'1010.1
2014-Oct-16 18:33N 36°28' E 025°22'4 3.7
2014-Oct-16 17:31N 36°25' E 025°25'0 0.0
2014-Oct-16 16:31N 36°25' E 025°25'0 0.0
2014-Oct-16 15:31N 36°25' E 025°25'0 0.0
2014-Oct-16 14:31N 36°25' E 025°25'0 0.0
2014-Oct-16 13:31N 36°25' E 025°25'0 0.0
2014-Oct-16 12:31N 36°25' E 025°25'0 0.0
2014-Oct-16 11:31N 36°25' E 025°25'0 0.0
2014-Oct-16 10:31N 36°25' E 025°25'0 0.0
2014-Oct-16 09:31N 36°25' E 025°25'0 0.0
2014-Oct-16 08:31N 36°25' E 025°25'0 0.0
2014-Oct-16 07:31N 36°25' E 025°25'0 0.0
2014-Oct-16 06:31N 36°25' E 025°25'0 0.0
2014-Oct-16 05:31N 36°25' E 025°25'0 0.0
2014-Oct-16 04:32N 36°25' E 025°25'5 4.7
2014-Oct-16 03:33N 36°28' E 025°21'8 7.9
2014-Oct-16 02:33N 36°33' E 025°29'9 9.0
2014-Oct-16 01:33N 36°34' E 025°40'9 9.2
2014-Oct-16 00:33N 36°37' E 025°51'10 9.6
2014-Oct-15 23:33N 36°40' E 026°03'1010.3
2014-Oct-15 22:33N 36°43' E 026°15'1110.9
2014-Oct-15 21:33N 36°46' E 026°28'9 8.6
2014-Oct-15 20:33N 36°48' E 026°38'9 9.0
2014-Oct-15 19:33N 36°50' E 026°49'10 9.9
2014-Oct-15 18:33N 36°53' E 027°01'1010.0
2014-Oct-15 17:31N 36°55' E 027°14'9 9.7
2014-Oct-15 16:33N 36°59' E 027°24'36 0.9
2014-Oct-13 22:32N 37°24' E 026°52'158 4.2
2014-Oct-12 09:04N 39°53' E 025°43'3 6.1
2014-Oct-12 08:34N 39°55' E 025°47'7 6.4
2014-Oct-12 07:24N 39°59' E 025°55'  

Dump ship's entire track history